Alpaugh, California
Current Conditions -  °F | °C
As of 7:35 PM on Wednesday 22 Oct 2014 (Local Time) from KPTV Reporting Station
Clear Clear  
Wind Chill: 64°   Ceiling: Unl
Heat Index: 64°   Visibility: 10mi
Dew Point: 46°   Wind: 3mph
Humidity: 52%   Direction: 220°SW
Pressure: 30.04"   Gusts: NA
Location:  35.89°N, 119.49°W
Report Text: KPTV 230235Z 22003KT 10SM CLR 18/08 A3004 RMK AO1
Loading
Personal Weather Stations






























Interactive Weather Map
Tropical Storm Tracking
New forecast layout! Learn more

10-Day Weather Forecast

Advertisements
Track Severe Weather on mobile